createdAt,value
2022-08-14T00:01:54.927Z,21.58
2022-08-14T00:04:35.862Z,21.56
2022-08-14T00:07:11.371Z,21.49
2022-08-14T00:10:02.577Z,21.45
2022-08-14T00:12:33.900Z,21.37
2022-08-14T00:15:18.457Z,21.35
2022-08-14T00:17:53.140Z,21.34
2022-08-14T00:20:31.160Z,21.30
2022-08-14T00:23:16.350Z,21.30
2022-08-14T00:25:58.763Z,21.28
2022-08-14T00:28:35.171Z,21.26
2022-08-14T00:31:02.812Z,21.18
2022-08-14T00:33:50.543Z,21.16
2022-08-14T00:36:37.432Z,21.13
2022-08-14T00:39:04.767Z,21.09
2022-08-14T00:41:33.715Z,21.08
2022-08-14T00:44:01.373Z,21.04
2022-08-14T00:46:32.636Z,21.02
2022-08-14T00:49:02.174Z,20.98
2022-08-14T00:51:37.808Z,20.95
2022-08-14T00:54:11.058Z,20.89
2022-08-14T00:56:49.109Z,20.86
2022-08-14T00:59:16.175Z,20.82
2022-08-14T01:01:44.045Z,20.79
2022-08-14T01:04:52.412Z,20.76
2022-08-14T01:07:00.857Z,20.74
2022-08-14T01:09:31.911Z,20.70
2022-08-14T01:12:02.669Z,20.64
2022-08-14T01:14:30.023Z,20.60
2022-08-14T01:16:57.456Z,20.59
2022-08-14T01:19:44.129Z,20.54
2022-08-14T01:22:13.419Z,20.49
2022-08-14T01:24:45.558Z,20.47
2022-08-14T01:27:20.512Z,20.45
2022-08-14T01:30:03.288Z,20.41
2022-08-14T01:32:37.414Z,20.39
2022-08-14T01:35:20.561Z,20.35
2022-08-14T01:37:57.716Z,20.32
2022-08-14T01:40:33.160Z,20.30
2022-08-14T01:43:08.806Z,20.27
2022-08-14T01:45:41.021Z,20.21
2022-08-14T01:48:13.524Z,20.15
2022-08-14T01:50:42.201Z,20.13
2022-08-14T01:53:10.504Z,20.04
2022-08-14T01:55:40.409Z,19.95
2022-08-14T01:58:19.509Z,19.93
2022-08-14T02:00:54.370Z,19.94
2022-08-14T02:03:29.621Z,19.92
2022-08-14T02:06:03.588Z,19.90
2022-08-14T02:08:35.515Z,19.87
2022-08-14T02:11:18.808Z,19.83
2022-08-14T02:13:50.661Z,19.82
2022-08-14T02:16:22.300Z,19.75
2022-08-14T02:18:49.953Z,19.75
2022-08-14T02:21:19.543Z,19.73
2022-08-14T02:23:53.657Z,19.69
2022-08-14T02:26:32.951Z,19.68
2022-08-14T02:29:22.265Z,19.64
2022-08-14T02:31:54.049Z,19.62
2022-08-14T02:34:31.949Z,19.58
2022-08-14T02:37:07.111Z,19.55
2022-08-14T02:39:42.856Z,19.55
2022-08-14T02:42:12.839Z,19.54
2022-08-14T02:44:48.990Z,19.52
2022-08-14T02:47:19.161Z,19.50
2022-08-14T02:49:50.533Z,19.49
2022-08-14T02:52:55.600Z,19.44
2022-08-14T02:55:08.116Z,19.41
2022-08-14T02:57:39.734Z,19.37
2022-08-14T03:00:09.881Z,19.35
2022-08-14T03:02:55.963Z,19.31
2022-08-14T03:05:24.373Z,19.24
2022-08-14T03:07:51.901Z,19.22
2022-08-14T03:10:27.420Z,19.20
2022-08-14T03:13:00.603Z,19.20
2022-08-14T03:15:27.568Z,19.20
2022-08-14T03:17:56.899Z,19.20
2022-08-14T03:20:29.105Z,19.19
2022-08-14T03:23:02.995Z,19.17
2022-08-14T03:25:33.271Z,19.14
2022-08-14T03:28:04.184Z,19.15
2022-08-14T03:30:39.893Z,19.13
2022-08-14T03:33:10.549Z,19.11
2022-08-14T03:35:40.400Z,19.06
2022-08-14T03:39:13.605Z,19.01
2022-08-14T03:41:16.479Z,18.95
2022-08-14T03:43:44.879Z,18.93
2022-08-14T03:46:38.872Z,18.89
2022-08-14T03:49:02.984Z,18.91
2022-08-14T03:51:30.155Z,18.86
2022-08-14T03:53:58.105Z,18.81
2022-08-14T03:56:26.752Z,18.79
2022-08-14T03:58:58.126Z,18.77
2022-08-14T04:01:29.262Z,18.79
2022-08-14T04:04:06.290Z,18.75
2022-08-14T04:06:47.516Z,18.72
2022-08-14T04:09:14.504Z,18.69
2022-08-14T04:11:45.243Z,18.65
2022-08-14T04:14:16.612Z,18.63
2022-08-14T04:16:46.299Z,18.58
2022-08-14T04:19:19.890Z,18.57
2022-08-14T04:22:03.991Z,18.54
2022-08-14T04:24:37.829Z,18.53
2022-08-14T04:27:10.451Z,18.52
2022-08-14T04:29:42.617Z,18.50
2022-08-14T04:32:59.877Z,18.48
2022-08-14T04:34:57.952Z,18.47
2022-08-14T04:37:45.187Z,18.48
2022-08-14T04:40:31.744Z,18.48
2022-08-14T04:43:17.832Z,18.46
2022-08-14T04:45:45.289Z,18.47
2022-08-14T04:48:39.817Z,18.47
2022-08-14T04:51:07.863Z,18.49
2022-08-14T04:53:41.090Z,18.49
2022-08-14T04:56:30.750Z,18.48
2022-08-14T04:59:02.167Z,18.49
2022-08-14T05:01:39.564Z,18.52
2022-08-14T05:04:07.253Z,18.55
2022-08-14T05:06:38.896Z,18.57
2022-08-14T05:09:07.115Z,18.61
2022-08-14T05:11:37.132Z,18.62
2022-08-14T05:14:16.204Z,18.63
2022-08-14T05:16:52.752Z,18.64
2022-08-14T05:19:26.574Z,18.67
2022-08-14T05:22:15.618Z,18.73
2022-08-14T05:24:44.598Z,18.76
2022-08-14T05:27:11.312Z,18.77
2022-08-14T05:29:37.972Z,18.78
2022-08-14T05:32:07.689Z,18.81
2022-08-14T05:34:34.210Z,18.83
2022-08-14T05:37:03.173Z,18.87
2022-08-14T05:39:31.557Z,18.92
2022-08-14T05:42:00.414Z,18.99
2022-08-14T05:44:30.270Z,19.04
2022-08-14T05:46:58.699Z,19.08
2022-08-14T05:49:32.691Z,19.12
2022-08-14T05:52:01.802Z,19.19
2022-08-14T05:54:31.371Z,19.25
2022-08-14T05:57:04.456Z,19.33
2022-08-14T05:59:39.130Z,19.36
2022-08-14T06:02:11.095Z,19.39
2022-08-14T06:04:48.120Z,19.45
2022-08-14T06:07:16.312Z,19.52
2022-08-14T06:09:43.230Z,19.55
2022-08-14T06:12:55.112Z,19.58
2022-08-14T06:15:08.139Z,19.62
2022-08-14T06:17:58.779Z,19.68
2022-08-14T06:20:26.561Z,19.70
2022-08-14T06:22:55.349Z,19.77
2022-08-14T06:25:22.968Z,19.89
2022-08-14T06:27:49.792Z,19.97
2022-08-14T06:30:19.826Z,20.06
2022-08-14T06:32:47.791Z,20.13
2022-08-14T06:35:23.417Z,20.15
2022-08-14T06:37:55.401Z,20.26
2022-08-14T06:40:28.321Z,20.35
2022-08-14T06:43:16.314Z,20.45
2022-08-14T06:45:50.345Z,20.53
2022-08-14T06:48:24.953Z,20.62
2022-08-14T06:50:53.883Z,20.72
2022-08-14T06:53:22.193Z,20.85
2022-08-14T06:56:00.808Z,21.00
2022-08-14T06:58:31.666Z,21.17
2022-08-14T07:01:25.083Z,21.31
2022-08-14T07:04:22.902Z,21.51
2022-08-14T07:06:50.300Z,21.69
2022-08-14T07:09:22.641Z,21.77
2022-08-14T07:11:50.881Z,21.84
2022-08-14T07:14:17.695Z,21.91
2022-08-14T07:16:44.236Z,21.95
2022-08-14T07:19:11.506Z,22.01
2022-08-14T07:21:39.680Z,22.09
2022-08-14T07:24:06.769Z,22.21
2022-08-14T07:26:36.545Z,22.35
2022-08-14T07:29:05.743Z,22.50
2022-08-14T07:31:33.430Z,22.63
2022-08-14T07:34:00.039Z,22.66
2022-08-14T07:36:31.243Z,22.72
2022-08-14T07:38:59.701Z,22.83
2022-08-14T07:41:33.610Z,22.90
2022-08-14T07:44:29.669Z,23.00
2022-08-14T07:46:50.437Z,23.08
2022-08-14T07:49:17.672Z,23.17
2022-08-14T07:51:44.693Z,23.26
2022-08-14T07:54:12.166Z,23.37
2022-08-14T07:56:47.582Z,23.53
2022-08-14T07:59:18.018Z,23.67
2022-08-14T08:01:51.171Z,23.77
2022-08-14T08:04:24.337Z,23.82
2022-08-14T08:06:53.218Z,23.89
2022-08-14T08:09:23.909Z,24.02
2022-08-14T08:11:54.556Z,24.13
2022-08-14T08:14:25.401Z,24.16
2022-08-14T08:16:54.158Z,24.25
2022-08-14T08:19:20.808Z,24.33
2022-08-14T08:21:47.927Z,24.34
2022-08-14T08:24:19.872Z,24.44
2022-08-14T08:26:48.167Z,24.53
2022-08-14T08:29:28.598Z,24.60
2022-08-14T08:32:01.974Z,24.67
2022-08-14T08:34:45.945Z,24.80
2022-08-14T08:37:14.370Z,24.88
2022-08-14T08:40:03.487Z,24.99
2022-08-14T08:42:38.591Z,25.08
2022-08-14T08:45:12.243Z,25.22
2022-08-14T08:47:40.463Z,25.27
2022-08-14T08:50:31.258Z,25.23
2022-08-14T08:53:00.173Z,25.37
2022-08-14T08:55:40.346Z,25.39
2022-08-14T08:58:16.586Z,25.54
2022-08-14T09:00:54.167Z,25.62
2022-08-14T09:03:27.389Z,25.67
2022-08-14T09:05:58.350Z,25.72
2022-08-14T09:08:33.051Z,25.76
2022-08-14T09:11:19.750Z,25.78
2022-08-14T09:13:49.850Z,25.88
2022-08-14T09:16:20.665Z,25.95
2022-08-14T09:18:48.899Z,26.06
2022-08-14T09:21:16.434Z,26.11
2022-08-14T09:24:28.281Z,26.29
2022-08-14T09:26:29.947Z,26.41
2022-08-14T09:28:59.098Z,26.54
2022-08-14T09:31:28.695Z,26.63
2022-08-14T09:34:37.024Z,26.71
2022-08-14T09:37:23.394Z,26.89
2022-08-14T09:39:59.943Z,27.08
2022-08-14T09:42:44.949Z,27.21
2022-08-14T09:45:24.384Z,27.32
2022-08-14T09:47:54.593Z,27.38
2022-08-14T09:50:43.877Z,27.48
2022-08-14T09:53:17.985Z,27.50
2022-08-14T09:55:45.813Z,27.65
2022-08-14T09:58:22.614Z,28.00
2022-08-14T10:01:00.606Z,28.09
2022-08-14T10:03:35.526Z,28.17
2022-08-14T10:06:04.937Z,28.21
2022-08-14T10:08:42.862Z,28.36
2022-08-14T10:11:19.439Z,28.54
2022-08-14T10:13:56.083Z,28.57
2022-08-14T10:16:33.066Z,28.68
2022-08-14T10:19:05.306Z,28.81
2022-08-14T10:21:38.774Z,28.91
2022-08-14T10:24:36.462Z,29.05
2022-08-14T10:27:04.575Z,29.17
2022-08-14T10:29:34.128Z,29.25
2022-08-14T10:32:01.812Z,29.41
2022-08-14T10:34:35.681Z,29.58
2022-08-14T10:37:14.140Z,29.71
2022-08-14T10:40:01.373Z,29.88
2022-08-14T10:42:36.696Z,29.97
2022-08-14T10:45:18.372Z,29.99
2022-08-14T10:48:08.868Z,29.95
2022-08-14T10:50:32.425Z,30.11
2022-08-14T10:53:00.080Z,30.29
2022-08-14T10:55:45.349Z,30.48
2022-08-14T10:58:12.465Z,30.41
2022-08-14T11:00:55.606Z,30.54
2022-08-14T11:03:35.813Z,30.65
2022-08-14T11:06:20.091Z,30.76
2022-08-14T11:08:48.486Z,30.83
2022-08-14T11:11:18.102Z,30.85
2022-08-14T11:13:46.613Z,31.05
2022-08-14T11:16:18.308Z,31.09
2022-08-14T11:18:50.857Z,31.00
2022-08-14T11:21:23.025Z,31.21
2022-08-14T11:23:53.465Z,31.40
2022-08-14T11:26:24.431Z,31.52
2022-08-14T11:28:52.122Z,31.67
2022-08-14T11:31:23.792Z,31.83
2022-08-14T11:33:55.146Z,32.05
2022-08-14T11:37:02.467Z,31.93
2022-08-14T11:39:34.662Z,31.63
2022-08-14T11:42:07.747Z,31.77
2022-08-14T11:45:00.289Z,31.53
2022-08-14T11:47:34.783Z,31.07
2022-08-14T11:50:13.310Z,31.43
2022-08-14T11:52:40.537Z,31.96
2022-08-14T11:55:12.836Z,32.41
2022-08-14T11:57:41.505Z,32.66
2022-08-14T12:00:14.705Z,32.55
2022-08-14T12:03:03.400Z,32.31
2022-08-14T12:05:39.919Z,32.79
2022-08-14T12:08:12.025Z,32.96
2022-08-14T12:10:43.011Z,33.20
2022-08-14T12:13:17.777Z,33.30
2022-08-14T12:15:46.291Z,33.46
2022-08-14T12:18:19.379Z,33.74
2022-08-14T12:20:52.390Z,33.77
2022-08-14T12:23:22.598Z,33.90
2022-08-14T12:25:59.306Z,33.92
2022-08-14T12:28:33.721Z,33.81
2022-08-14T12:31:20.444Z,33.83
2022-08-14T12:33:59.781Z,33.86
2022-08-14T12:36:30.608Z,33.41
2022-08-14T12:38:58.809Z,33.16
2022-08-14T12:41:34.301Z,32.74
2022-08-14T12:44:06.465Z,32.27
2022-08-14T12:46:37.983Z,32.14
2022-08-14T12:49:13.522Z,32.42
2022-08-14T12:51:44.256Z,32.15
2022-08-14T12:54:27.683Z,32.36
2022-08-14T12:57:14.612Z,32.85
2022-08-14T12:59:45.640Z,33.14
2022-08-14T13:02:26.599Z,33.15
2022-08-14T13:04:56.586Z,32.76
2022-08-14T13:07:26.347Z,32.30
2022-08-14T13:09:58.400Z,31.91
2022-08-14T13:12:32.216Z,31.60
2022-08-14T13:15:08.849Z,31.44
2022-08-14T13:17:51.229Z,31.36
2022-08-14T13:20:24.447Z,31.52
2022-08-14T13:22:52.211Z,31.62
2022-08-14T13:25:21.764Z,31.48
2022-08-14T13:27:54.809Z,31.42
2022-08-14T13:30:24.616Z,31.49
2022-08-14T13:32:53.464Z,31.53
2022-08-14T13:35:22.553Z,31.50
2022-08-14T13:37:52.476Z,31.51
2022-08-14T13:40:26.437Z,31.58
2022-08-14T13:42:56.880Z,31.59
2022-08-14T13:45:33.944Z,31.44
2022-08-14T13:48:32.130Z,31.35
2022-08-14T13:51:01.720Z,31.36
2022-08-14T13:53:33.077Z,31.60
2022-08-14T13:56:01.551Z,32.19
2022-08-14T13:58:35.657Z,32.56
2022-08-14T14:01:02.363Z,32.62
2022-08-14T14:03:35.360Z,31.98
2022-08-14T14:06:03.872Z,31.88
2022-08-14T14:08:46.430Z,31.81
2022-08-14T14:11:17.198Z,31.72
2022-08-14T14:13:46.491Z,31.62
2022-08-14T14:16:15.476Z,31.57
2022-08-14T14:18:56.246Z,31.52
2022-08-14T14:21:26.644Z,31.66
2022-08-14T14:23:56.307Z,32.27
2022-08-14T14:26:25.077Z,32.59
2022-08-14T14:28:56.480Z,32.68
2022-08-14T14:31:29.893Z,32.87
2022-08-14T14:34:07.600Z,32.97
2022-08-14T14:36:52.464Z,32.84
2022-08-14T14:39:27.423Z,32.70
2022-08-14T14:41:59.616Z,32.62
2022-08-14T14:44:42.778Z,32.51
2022-08-14T14:47:10.780Z,32.48
2022-08-14T14:49:51.078Z,32.87
2022-08-14T14:52:26.899Z,33.15
2022-08-14T14:54:57.651Z,33.19
2022-08-14T14:57:35.682Z,33.38
2022-08-14T15:00:18.572Z,33.42
2022-08-14T15:02:52.339Z,33.60
2022-08-14T15:05:20.567Z,33.77
2022-08-14T15:07:49.660Z,33.72
2022-08-14T15:10:27.364Z,33.48
2022-08-14T15:13:00.326Z,33.60
2022-08-14T15:15:30.160Z,33.75
2022-08-14T15:17:59.467Z,33.83
2022-08-14T15:20:29.897Z,33.77
2022-08-14T15:23:08.004Z,33.78
2022-08-14T15:25:39.523Z,33.74
2022-08-14T15:28:11.476Z,33.54
2022-08-14T15:30:46.003Z,33.34
2022-08-14T15:34:13.128Z,33.29
2022-08-14T15:36:35.223Z,33.09
2022-08-14T15:39:02.084Z,32.96
2022-08-14T15:41:33.722Z,32.94
2022-08-14T15:44:25.234Z,32.95
2022-08-14T15:46:53.818Z,33.08
2022-08-14T15:49:21.750Z,33.25
2022-08-14T15:51:48.226Z,33.46
2022-08-14T15:54:17.800Z,33.41
2022-08-14T15:56:59.525Z,33.59
2022-08-14T15:59:27.990Z,33.72
2022-08-14T16:01:55.631Z,33.70
2022-08-14T16:04:24.050Z,33.65
2022-08-14T16:06:54.864Z,33.59
2022-08-14T16:09:22.778Z,33.48
2022-08-14T16:11:53.712Z,33.23
2022-08-14T16:14:21.550Z,33.09
2022-08-14T16:16:51.443Z,32.91
2022-08-14T16:19:30.335Z,32.90
2022-08-14T16:22:03.395Z,32.88
2022-08-14T16:25:00.479Z,32.92
2022-08-14T16:27:33.587Z,32.89
2022-08-14T16:30:20.294Z,32.83
2022-08-14T16:32:54.925Z,32.76
2022-08-14T16:35:26.409Z,32.58
2022-08-14T16:38:19.162Z,32.45
2022-08-14T16:41:16.893Z,32.43
2022-08-14T16:43:48.227Z,32.31
2022-08-14T16:46:22.200Z,32.30
2022-08-14T16:48:55.480Z,32.26
2022-08-14T16:51:23.996Z,32.11
2022-08-14T16:53:50.727Z,32.01
2022-08-14T16:56:23.600Z,32.02
2022-08-14T16:59:05.093Z,32.02
2022-08-14T17:01:31.839Z,31.88
2022-08-14T17:04:08.619Z,31.75
2022-08-14T17:06:55.377Z,31.64
2022-08-14T17:09:43.467Z,31.59
2022-08-14T17:12:33.352Z,31.51
2022-08-14T17:15:11.176Z,31.37
2022-08-14T17:17:49.859Z,31.28
2022-08-14T17:20:53.504Z,31.19
2022-08-14T17:23:12.147Z,31.06
2022-08-14T17:25:40.214Z,30.94
2022-08-14T17:28:49.965Z,30.89
2022-08-14T17:31:05.995Z,30.81
2022-08-14T17:33:40.802Z,30.68
2022-08-14T17:36:24.082Z,30.60
2022-08-14T17:39:15.150Z,30.56
2022-08-14T17:41:45.165Z,30.49
2022-08-14T17:44:45.397Z,30.48
2022-08-14T17:47:14.784Z,30.49
2022-08-14T17:49:52.146Z,30.48
2022-08-14T17:52:34.115Z,30.48
2022-08-14T17:55:12.705Z,30.36
2022-08-14T17:57:57.411Z,30.17
2022-08-14T18:00:26.446Z,30.07
2022-08-14T18:02:54.547Z,30.02
2022-08-14T18:05:23.405Z,29.99
2022-08-14T18:08:33.746Z,29.96
2022-08-14T18:10:57.364Z,29.90
2022-08-14T18:13:51.237Z,29.86
2022-08-14T18:16:20.172Z,29.71
2022-08-14T18:18:51.107Z,29.67
2022-08-14T18:21:24.073Z,29.59
2022-08-14T18:23:52.563Z,29.48
2022-08-14T18:26:37.230Z,29.40
2022-08-14T18:29:14.626Z,29.39
2022-08-14T18:31:43.966Z,29.35
2022-08-14T18:34:32.349Z,29.29
2022-08-14T18:37:09.474Z,29.26
2022-08-14T18:40:02.001Z,29.18
2022-08-14T18:42:33.295Z,29.10
2022-08-14T18:45:01.927Z,29.00
2022-08-14T18:47:56.616Z,28.91
2022-08-14T18:50:31.165Z,28.72
2022-08-14T18:53:07.534Z,28.31
2022-08-14T18:55:53.501Z,28.09
2022-08-14T18:58:31.266Z,28.01
2022-08-14T19:01:01.654Z,27.98
2022-08-14T19:03:34.276Z,27.98
2022-08-14T19:06:09.071Z,27.97
2022-08-14T19:08:45.428Z,27.97
2022-08-14T19:11:40.613Z,27.89
2022-08-14T19:14:08.068Z,27.84
2022-08-14T19:16:37.885Z,27.80
2022-08-14T19:19:11.913Z,27.76
2022-08-14T19:21:55.170Z,27.70
2022-08-14T19:24:34.085Z,27.62
2022-08-14T19:27:23.911Z,27.46
2022-08-14T19:30:19.703Z,27.36
2022-08-14T19:32:51.710Z,27.36
2022-08-14T19:35:49.913Z,27.31
2022-08-14T19:38:53.374Z,27.25
2022-08-14T19:41:33.821Z,27.24
2022-08-14T19:44:15.030Z,27.20
2022-08-14T19:47:02.479Z,27.16
2022-08-14T19:50:08.358Z,27.10
2022-08-14T19:52:25.913Z,27.04
2022-08-14T19:54:56.308Z,27.00
2022-08-14T19:57:25.711Z,26.94
2022-08-14T20:00:29.299Z,26.86
2022-08-14T20:03:10.154Z,26.82
2022-08-14T20:05:45.358Z,26.75
2022-08-14T20:10:57.990Z,26.69
2022-08-14T20:11:19.130Z,26.61
2022-08-14T20:14:29.719Z,26.46
2022-08-14T20:17:05.973Z,26.29
2022-08-14T20:19:37.957Z,26.24
2022-08-14T20:22:35.483Z,26.20
2022-08-14T20:25:11.006Z,26.16
2022-08-14T20:27:40.875Z,26.13
2022-08-14T20:30:35.117Z,26.07
2022-08-14T20:33:07.299Z,26.03
2022-08-14T20:35:42.276Z,25.98
2022-08-14T20:38:30.539Z,25.93
2022-08-14T20:41:05.553Z,25.80
2022-08-14T20:43:53.435Z,25.50
2022-08-14T20:46:29.602Z,25.39
2022-08-14T20:49:00.153Z,25.29
2022-08-14T20:51:47.631Z,25.28
2022-08-14T20:54:34.757Z,25.24
2022-08-14T20:57:11.874Z,25.13
2022-08-14T20:59:53.139Z,25.02
2022-08-14T21:02:46.175Z,25.02
2022-08-14T21:05:18.039Z,25.02
2022-08-14T21:07:51.078Z,25.04
2022-08-14T21:10:35.721Z,25.03
2022-08-14T21:13:26.373Z,25.00
2022-08-14T21:15:57.823Z,25.00
2022-08-14T21:18:26.068Z,25.00
2022-08-14T21:20:56.440Z,24.99
2022-08-14T21:23:23.180Z,24.90
2022-08-14T21:25:50.064Z,24.78
2022-08-14T21:28:29.450Z,24.68
2022-08-14T21:30:57.912Z,24.66
2022-08-14T21:33:25.373Z,24.64
2022-08-14T21:35:54.976Z,24.63
2022-08-14T21:38:33.805Z,24.56
2022-08-14T21:41:43.530Z,24.37
2022-08-14T21:44:18.226Z,24.42
2022-08-14T21:46:56.791Z,24.46
2022-08-14T21:49:34.038Z,24.47
2022-08-14T21:52:51.180Z,24.48
2022-08-14T21:55:09.382Z,24.49
2022-08-14T21:58:44.835Z,24.48
2022-08-14T22:00:34.975Z,24.48
2022-08-14T22:03:08.972Z,24.47
2022-08-14T22:05:38.932Z,24.45
2022-08-14T22:08:06.849Z,24.42
2022-08-14T22:10:34.729Z,24.39
2022-08-14T22:13:01.936Z,24.30
2022-08-14T22:15:30.055Z,24.14
2022-08-14T22:17:58.328Z,24.05
2022-08-14T22:20:28.704Z,24.01
2022-08-14T22:22:56.753Z,23.91
2022-08-14T22:25:33.874Z,23.82
2022-08-14T22:28:05.900Z,23.77
2022-08-14T22:30:34.100Z,23.74
2022-08-14T22:33:01.271Z,23.79
2022-08-14T22:35:29.254Z,23.82
2022-08-14T22:38:34.560Z,23.82
2022-08-14T22:41:02.092Z,23.84
2022-08-14T22:43:34.954Z,23.83
2022-08-14T22:46:02.795Z,23.80
2022-08-14T22:48:33.276Z,23.76
2022-08-14T22:51:06.306Z,23.71
2022-08-14T22:53:34.125Z,23.63
2022-08-14T22:56:01.261Z,23.59
2022-08-14T22:58:34.671Z,23.57
2022-08-14T23:01:04.669Z,23.55
2022-08-14T23:03:34.937Z,23.54
2022-08-14T23:06:04.352Z,23.51
2022-08-14T23:09:01.089Z,23.44
2022-08-14T23:11:38.104Z,23.39
2022-08-14T23:14:09.733Z,23.39
2022-08-14T23:16:39.203Z,23.34
2022-08-14T23:19:11.011Z,23.29
2022-08-14T23:21:46.332Z,23.30
2022-08-14T23:24:14.124Z,23.31
2022-08-14T23:26:48.988Z,23.31
2022-08-14T23:29:20.480Z,23.27
2022-08-14T23:31:48.941Z,23.25
2022-08-14T23:34:20.848Z,23.20
2022-08-14T23:36:56.220Z,23.09
2022-08-14T23:39:29.940Z,22.92
2022-08-14T23:42:02.496Z,22.78
2022-08-14T23:44:34.737Z,22.77
2022-08-14T23:47:03.466Z,22.70
2022-08-14T23:49:56.708Z,22.73
2022-08-14T23:55:11.396Z,22.86
2022-08-14T23:57:43.681Z,22.86
